sensor_id;sensor_type;location;lat;lon;timestamp;P1;durP1;ratioP1;P2;durP2;ratioP2
56943;SDS011;42848;42.524;12.052;2024-02-26T00:01:38;11.52;;;6.47;;
56943;SDS011;42848;42.524;12.052;2024-02-26T00:04:04;6.72;;;4.20;;
56943;SDS011;42848;42.524;12.052;2024-02-26T00:06:29;4.75;;;2.50;;
56943;SDS011;42848;42.524;12.052;2024-02-26T00:08:56;3.97;;;2.30;;
56943;SDS011;42848;42.524;12.052;2024-02-26T00:11:21;7.60;;;2.70;;
56943;SDS011;42848;42.524;12.052;2024-02-26T00:13:47;7.43;;;4.05;;
56943;SDS011;42848;42.524;12.052;2024-02-26T00:16:12;5.13;;;3.10;;
56943;SDS011;42848;42.524;12.052;2024-02-26T00:18:38;5.90;;;3.20;;
56943;SDS011;42848;42.524;12.052;2024-02-26T00:21:03;5.00;;;3.03;;
56943;SDS011;42848;42.524;12.052;2024-02-26T00:23:29;6.82;;;3.65;;
56943;SDS011;42848;42.524;12.052;2024-02-26T00:25:55;7.18;;;4.28;;
56943;SDS011;42848;42.524;12.052;2024-02-26T00:28:21;8.68;;;4.40;;
56943;SDS011;42848;42.524;12.052;2024-02-26T00:30:47;6.07;;;3.35;;
56943;SDS011;42848;42.524;12.052;2024-02-26T00:33:13;5.95;;;2.88;;
56943;SDS011;42848;42.524;12.052;2024-02-26T00:35:42;5.18;;;2.97;;
56943;SDS011;42848;42.524;12.052;2024-02-26T00:38:07;5.20;;;2.78;;
56943;SDS011;42848;42.524;12.052;2024-02-26T00:40:33;4.68;;;3.00;;
56943;SDS011;42848;42.524;12.052;2024-02-26T00:42:59;5.38;;;2.88;;
56943;SDS011;42848;42.524;12.052;2024-02-26T00:45:25;5.03;;;2.97;;
56943;SDS011;42848;42.524;12.052;2024-02-26T00:47:50;4.78;;;2.90;;
56943;SDS011;42848;42.524;12.052;2024-02-26T00:50:16;4.25;;;2.38;;
56943;SDS011;42848;42.524;12.052;2024-02-26T00:52:41;3.55;;;2.03;;
56943;SDS011;42848;42.524;12.052;2024-02-26T00:55:07;2.90;;;1.92;;
56943;SDS011;42848;42.524;12.052;2024-02-26T00:57:33;3.22;;;1.90;;
56943;SDS011;42848;42.524;12.052;2024-02-26T00:59:59;2.95;;;1.88;;
56943;SDS011;42848;42.524;12.052;2024-02-26T01:02:26;4.15;;;2.17;;
56943;SDS011;42848;42.524;12.052;2024-02-26T01:04:52;5.88;;;2.50;;
56943;SDS011;42848;42.524;12.052;2024-02-26T01:07:19;3.55;;;2.22;;
56943;SDS011;42848;42.524;12.052;2024-02-26T01:09:45;3.22;;;1.85;;
56943;SDS011;42848;42.524;12.052;2024-02-26T01:12:10;3.42;;;2.00;;
56943;SDS011;42848;42.524;12.052;2024-02-26T01:14:36;2.97;;;2.08;;
56943;SDS011;42848;42.524;12.052;2024-02-26T01:17:03;4.30;;;2.03;;
56943;SDS011;42848;42.524;12.052;2024-02-26T01:19:28;3.35;;;2.40;;
56943;SDS011;42848;42.524;12.052;2024-02-26T01:21:54;3.55;;;2.38;;
56943;SDS011;42848;42.524;12.052;2024-02-26T01:24:19;3.95;;;2.50;;
56943;SDS011;42848;42.524;12.052;2024-02-26T01:26:45;3.95;;;2.45;;
56943;SDS011;42848;42.524;12.052;2024-02-26T01:29:10;4.30;;;2.42;;
56943;SDS011;42848;42.524;12.052;2024-02-26T01:31:36;4.18;;;2.30;;
56943;SDS011;42848;42.524;12.052;2024-02-26T01:34:01;3.38;;;2.10;;
56943;SDS011;42848;42.524;12.052;2024-02-26T01:36:27;4.55;;;2.03;;
56943;SDS011;42848;42.524;12.052;2024-02-26T01:38:53;3.10;;;1.90;;
56943;SDS011;42848;42.524;12.052;2024-02-26T01:41:18;3.50;;;1.63;;
56943;SDS011;42848;42.524;12.052;2024-02-26T01:43:44;3.15;;;1.83;;
56943;SDS011;42848;42.524;12.052;2024-02-26T01:46:11;3.50;;;2.13;;
56943;SDS011;42848;42.524;12.052;2024-02-26T01:48:43;3.28;;;2.10;;
56943;SDS011;42848;42.524;12.052;2024-02-26T01:51:11;3.30;;;2.10;;
56943;SDS011;42848;42.524;12.052;2024-02-26T01:53:39;3.63;;;2.25;;
56943;SDS011;42848;42.524;12.052;2024-02-26T01:56:06;3.40;;;2.13;;
56943;SDS011;42848;42.524;12.052;2024-02-26T01:58:33;3.28;;;2.20;;
56943;SDS011;42848;42.524;12.052;2024-02-26T02:01:00;3.40;;;1.80;;
56943;SDS011;42848;42.524;12.052;2024-02-26T02:03:28;3.05;;;2.03;;
56943;SDS011;42848;42.524;12.052;2024-02-26T02:05:55;3.50;;;2.10;;
56943;SDS011;42848;42.524;12.052;2024-02-26T02:08:21;3.85;;;1.88;;
56943;SDS011;42848;42.524;12.052;2024-02-26T02:10:48;3.25;;;2.10;;
56943;SDS011;42848;42.524;12.052;2024-02-26T02:13:15;4.20;;;2.25;;
56943;SDS011;42848;42.524;12.052;2024-02-26T02:15:41;3.47;;;2.00;;
56943;SDS011;42848;42.524;12.052;2024-02-26T02:18:06;3.67;;;1.85;;
56943;SDS011;42848;42.524;12.052;2024-02-26T02:20:33;2.70;;;1.80;;
56943;SDS011;42848;42.524;12.052;2024-02-26T02:22:59;5.88;;;2.90;;
56943;SDS011;42848;42.524;12.052;2024-02-26T02:25:25;5.50;;;2.42;;
56943;SDS011;42848;42.524;12.052;2024-02-26T02:27:51;5.63;;;3.30;;
56943;SDS011;42848;42.524;12.052;2024-02-26T02:30:20;3.50;;;2.00;;
56943;SDS011;42848;42.524;12.052;2024-02-26T02:32:49;5.50;;;2.33;;
56943;SDS011;42848;42.524;12.052;2024-02-26T02:35:14;3.17;;;1.98;;
56943;SDS011;42848;42.524;12.052;2024-02-26T02:37:40;3.97;;;2.08;;
56943;SDS011;42848;42.524;12.052;2024-02-26T02:40:06;4.15;;;1.80;;
56943;SDS011;42848;42.524;12.052;2024-02-26T02:42:32;3.65;;;1.90;;
56943;SDS011;42848;42.524;12.052;2024-02-26T02:44:57;4.45;;;1.85;;
56943;SDS011;42848;42.524;12.052;2024-02-26T02:47:23;3.95;;;1.70;;
56943;SDS011;42848;42.524;12.052;2024-02-26T02:49:48;2.60;;;1.63;;
56943;SDS011;42848;42.524;12.052;2024-02-26T02:52:14;3.90;;;1.50;;
56943;SDS011;42848;42.524;12.052;2024-02-26T02:54:40;2.55;;;1.40;;
56943;SDS011;42848;42.524;12.052;2024-02-26T02:57:07;2.83;;;1.60;;
56943;SDS011;42848;42.524;12.052;2024-02-26T02:59:33;2.30;;;1.50;;
56943;SDS011;42848;42.524;12.052;2024-02-26T03:01:59;4.05;;;1.67;;
56943;SDS011;42848;42.524;12.052;2024-02-26T03:04:24;3.75;;;1.70;;
56943;SDS011;42848;42.524;12.052;2024-02-26T03:06:50;3.83;;;1.65;;
56943;SDS011;42848;42.524;12.052;2024-02-26T03:09:16;4.15;;;1.70;;
56943;SDS011;42848;42.524;12.052;2024-02-26T03:11:41;4.25;;;1.70;;
56943;SDS011;42848;42.524;12.052;2024-02-26T03:14:07;2.78;;;1.50;;
56943;SDS011;42848;42.524;12.052;2024-02-26T03:16:34;3.05;;;1.80;;
56943;SDS011;42848;42.524;12.052;2024-02-26T03:18:59;3.28;;;1.80;;
56943;SDS011;42848;42.524;12.052;2024-02-26T03:21:25;4.85;;;1.90;;
56943;SDS011;42848;42.524;12.052;2024-02-26T03:23:52;3.50;;;1.80;;
56943;SDS011;42848;42.524;12.052;2024-02-26T03:26:18;3.70;;;1.80;;
56943;SDS011;42848;42.524;12.052;2024-02-26T03:28:44;4.60;;;1.90;;
56943;SDS011;42848;42.524;12.052;2024-02-26T03:31:10;6.65;;;2.00;;
56943;SDS011;42848;42.524;12.052;2024-02-26T03:33:38;5.75;;;2.20;;
56943;SDS011;42848;42.524;12.052;2024-02-26T03:36:04;7.85;;;2.05;;
56943;SDS011;42848;42.524;12.052;2024-02-26T03:38:30;3.53;;;1.88;;
56943;SDS011;42848;42.524;12.052;2024-02-26T03:40:56;3.72;;;1.92;;
56943;SDS011;42848;42.524;12.052;2024-02-26T03:43:21;4.45;;;1.80;;
56943;SDS011;42848;42.524;12.052;2024-02-26T03:45:47;2.97;;;1.92;;
56943;SDS011;42848;42.524;12.052;2024-02-26T03:48:13;3.70;;;1.77;;
56943;SDS011;42848;42.524;12.052;2024-02-26T03:50:38;5.18;;;1.95;;
56943;SDS011;42848;42.524;12.052;2024-02-26T03:53:04;3.40;;;1.90;;
56943;SDS011;42848;42.524;12.052;2024-02-26T03:55:30;3.65;;;2.10;;
56943;SDS011;42848;42.524;12.052;2024-02-26T03:57:55;3.45;;;1.95;;
56943;SDS011;42848;42.524;12.052;2024-02-26T04:00:21;3.83;;;2.00;;
56943;SDS011;42848;42.524;12.052;2024-02-26T04:02:47;4.63;;;1.92;;
56943;SDS011;42848;42.524;12.052;2024-02-26T04:05:13;5.00;;;2.00;;
56943;SDS011;42848;42.524;12.052;2024-02-26T04:07:39;6.32;;;1.83;;
56943;SDS011;42848;42.524;12.052;2024-02-26T04:10:12;2.47;;;1.40;;
56943;SDS011;42848;42.524;12.052;2024-02-26T04:12:41;3.63;;;1.80;;
56943;SDS011;42848;42.524;12.052;2024-02-26T04:15:08;3.40;;;1.75;;
56943;SDS011;42848;42.524;12.052;2024-02-26T04:17:35;2.78;;;1.40;;
56943;SDS011;42848;42.524;12.052;2024-02-26T04:20:02;4.03;;;1.65;;
56943;SDS011;42848;42.524;12.052;2024-02-26T04:22:28;2.58;;;1.50;;
56943;SDS011;42848;42.524;12.052;2024-02-26T04:24:53;2.95;;;1.60;;
56943;SDS011;42848;42.524;12.052;2024-02-26T04:27:19;3.65;;;1.80;;
56943;SDS011;42848;42.524;12.052;2024-02-26T04:29:44;5.63;;;1.75;;
56943;SDS011;42848;42.524;12.052;2024-02-26T04:32:10;3.53;;;1.83;;
56943;SDS011;42848;42.524;12.052;2024-02-26T04:34:35;4.70;;;1.98;;
56943;SDS011;42848;42.524;12.052;2024-02-26T04:37:01;2.70;;;1.67;;
56943;SDS011;42848;42.524;12.052;2024-02-26T04:39:27;4.15;;;1.90;;
56943;SDS011;42848;42.524;12.052;2024-02-26T04:41:52;3.78;;;2.03;;
56943;SDS011;42848;42.524;12.052;2024-02-26T04:44:18;2.20;;;1.50;;
56943;SDS011;42848;42.524;12.052;2024-02-26T04:46:43;3.17;;;1.63;;
56943;SDS011;42848;42.524;12.052;2024-02-26T04:49:09;2.58;;;1.67;;
56943;SDS011;42848;42.524;12.052;2024-02-26T04:51:34;4.35;;;1.80;;
56943;SDS011;42848;42.524;12.052;2024-02-26T04:54:00;3.33;;;1.60;;
56943;SDS011;42848;42.524;12.052;2024-02-26T04:56:26;5.32;;;1.90;;
56943;SDS011;42848;42.524;12.052;2024-02-26T04:58:51;3.30;;;1.92;;
56943;SDS011;42848;42.524;12.052;2024-02-26T05:01:17;3.92;;;2.17;;
56943;SDS011;42848;42.524;12.052;2024-02-26T05:03:44;5.13;;;2.20;;
56943;SDS011;42848;42.524;12.052;2024-02-26T05:06:09;3.83;;;2.15;;
56943;SDS011;42848;42.524;12.052;2024-02-26T05:08:35;4.35;;;2.20;;
56943;SDS011;42848;42.524;12.052;2024-02-26T05:11:01;4.43;;;2.38;;
56943;SDS011;42848;42.524;12.052;2024-02-26T05:13:28;6.22;;;2.50;;
56943;SDS011;42848;42.524;12.052;2024-02-26T05:15:54;6.60;;;2.67;;
56943;SDS011;42848;42.524;12.052;2024-02-26T05:18:20;6.75;;;2.80;;
56943;SDS011;42848;42.524;12.052;2024-02-26T05:20:47;5.70;;;2.47;;
56943;SDS011;42848;42.524;12.052;2024-02-26T05:23:13;5.72;;;2.50;;
56943;SDS011;42848;42.524;12.052;2024-02-26T05:25:38;4.55;;;2.30;;
56943;SDS011;42848;42.524;12.052;2024-02-26T05:28:04;4.30;;;2.67;;
56943;SDS011;42848;42.524;12.052;2024-02-26T05:30:29;8.57;;;2.92;;
56943;SDS011;42848;42.524;12.052;2024-02-26T05:32:55;7.20;;;2.95;;
56943;SDS011;42848;42.524;12.052;2024-02-26T05:35:21;6.57;;;3.30;;
56943;SDS011;42848;42.524;12.052;2024-02-26T05:37:46;6.30;;;2.95;;
56943;SDS011;42848;42.524;12.052;2024-02-26T05:40:12;5.82;;;2.65;;
56943;SDS011;42848;42.524;12.052;2024-02-26T05:42:38;5.68;;;2.70;;
56943;SDS011;42848;42.524;12.052;2024-02-26T05:45:03;5.22;;;2.40;;
56943;SDS011;42848;42.524;12.052;2024-02-26T05:47:34;4.35;;;2.85;;
56943;SDS011;42848;42.524;12.052;2024-02-26T05:50:01;6.10;;;3.40;;
56943;SDS011;42848;42.524;12.052;2024-02-26T05:52:27;7.60;;;3.70;;
56943;SDS011;42848;42.524;12.052;2024-02-26T05:54:56;6.93;;;4.07;;
56943;SDS011;42848;42.524;12.052;2024-02-26T05:57:22;9.88;;;4.70;;
56943;SDS011;42848;42.524;12.052;2024-02-26T05:59:48;8.50;;;3.33;;
56943;SDS011;42848;42.524;12.052;2024-02-26T06:02:13;5.65;;;3.10;;
56943;SDS011;42848;42.524;12.052;2024-02-26T06:04:39;4.85;;;2.90;;
56943;SDS011;42848;42.524;12.052;2024-02-26T06:07:04;6.95;;;3.45;;
56943;SDS011;42848;42.524;12.052;2024-02-26T06:09:30;6.25;;;3.80;;
56943;SDS011;42848;42.524;12.052;2024-02-26T06:11:55;6.38;;;3.40;;
56943;SDS011;42848;42.524;12.052;2024-02-26T06:14:21;7.00;;;3.60;;
56943;SDS011;42848;42.524;12.052;2024-02-26T06:16:47;6.75;;;3.80;;
56943;SDS011;42848;42.524;12.052;2024-02-26T06:19:13;14.68;;;5.60;;
56943;SDS011;42848;42.524;12.052;2024-02-26T06:21:38;12.30;;;5.07;;
56943;SDS011;42848;42.524;12.052;2024-02-26T06:24:04;9.63;;;4.40;;
56943;SDS011;42848;42.524;12.052;2024-02-26T06:26:30;7.28;;;3.58;;
56943;SDS011;42848;42.524;12.052;2024-02-26T06:28:55;5.25;;;3.35;;
56943;SDS011;42848;42.524;12.052;2024-02-26T06:31:21;7.30;;;3.60;;
56943;SDS011;42848;42.524;12.052;2024-02-26T06:33:48;9.60;;;3.70;;
56943;SDS011;42848;42.524;12.052;2024-02-26T06:36:17;10.55;;;3.90;;
56943;SDS011;42848;42.524;12.052;2024-02-26T06:38:43;9.45;;;5.47;;
56943;SDS011;42848;42.524;12.052;2024-02-26T06:41:08;11.20;;;4.45;;
56943;SDS011;42848;42.524;12.052;2024-02-26T06:43:34;8.82;;;4.70;;
56943;SDS011;42848;42.524;12.052;2024-02-26T06:46:00;9.73;;;5.50;;
56943;SDS011;42848;42.524;12.052;2024-02-26T06:48:26;12.90;;;5.45;;
56943;SDS011;42848;42.524;12.052;2024-02-26T06:50:51;10.65;;;5.97;;
56943;SDS011;42848;42.524;12.052;2024-02-26T06:53:17;14.35;;;7.30;;
56943;SDS011;42848;42.524;12.052;2024-02-26T06:55:42;8.80;;;4.60;;
56943;SDS011;42848;42.524;12.052;2024-02-26T06:58:08;9.02;;;4.50;;
56943;SDS011;42848;42.524;12.052;2024-02-26T07:00:34;8.15;;;4.50;;
56943;SDS011;42848;42.524;12.052;2024-02-26T07:03:00;8.07;;;4.20;;
56943;SDS011;42848;42.524;12.052;2024-02-26T07:05:26;7.80;;;4.40;;
56943;SDS011;42848;42.524;12.052;2024-02-26T07:07:52;10.73;;;6.72;;
56943;SDS011;42848;42.524;12.052;2024-02-26T07:10:18;14.13;;;7.72;;
56943;SDS011;42848;42.524;12.052;2024-02-26T07:12:44;18.52;;;10.43;;
56943;SDS011;42848;42.524;12.052;2024-02-26T07:15:09;19.42;;;11.63;;
56943;SDS011;42848;42.524;12.052;2024-02-26T07:17:36;18.38;;;10.10;;
56943;SDS011;42848;42.524;12.052;2024-02-26T07:20:01;19.15;;;8.00;;
56943;SDS011;42848;42.524;12.052;2024-02-26T07:22:30;15.95;;;8.57;;
56943;SDS011;42848;42.524;12.052;2024-02-26T07:24:56;15.73;;;9.88;;
56943;SDS011;42848;42.524;12.052;2024-02-26T07:27:22;6.28;;;4.07;;
56943;SDS011;42848;42.524;12.052;2024-02-26T07:29:48;10.13;;;5.88;;
56943;SDS011;42848;42.524;12.052;2024-02-26T07:32:14;7.85;;;4.32;;
56943;SDS011;42848;42.524;12.052;2024-02-26T07:34:39;9.30;;;5.60;;
56943;SDS011;42848;42.524;12.052;2024-02-26T07:37:07;17.27;;;6.97;;
56943;SDS011;42848;42.524;12.052;2024-02-26T07:39:33;16.52;;;8.52;;
56943;SDS011;42848;42.524;12.052;2024-02-26T07:41:59;18.88;;;11.77;;
56943;SDS011;42848;42.524;12.052;2024-02-26T07:44:24;27.35;;;12.68;;
56943;SDS011;42848;42.524;12.052;2024-02-26T07:46:50;15.95;;;10.07;;
56943;SDS011;42848;42.524;12.052;2024-02-26T07:49:15;11.98;;;7.15;;
56943;SDS011;42848;42.524;12.052;2024-02-26T07:51:41;11.75;;;7.80;;
56943;SDS011;42848;42.524;12.052;2024-02-26T07:54:07;14.75;;;8.90;;
56943;SDS011;42848;42.524;12.052;2024-02-26T07:56:32;13.38;;;8.52;;
56943;SDS011;42848;42.524;12.052;2024-02-26T07:58:58;18.63;;;11.07;;
56943;SDS011;42848;42.524;12.052;2024-02-26T08:01:23;19.73;;;11.73;;
56943;SDS011;42848;42.524;12.052;2024-02-26T08:03:51;16.40;;;10.00;;
56943;SDS011;42848;42.524;12.052;2024-02-26T08:06:17;20.98;;;10.45;;
56943;SDS011;42848;42.524;12.052;2024-02-26T08:08:43;17.58;;;9.13;;
56943;SDS011;42848;42.524;12.052;2024-02-26T08:11:09;17.17;;;8.48;;
56943;SDS011;42848;42.524;12.052;2024-02-26T08:13:37;8.55;;;5.60;;
56943;SDS011;42848;42.524;12.052;2024-02-26T08:16:03;7.90;;;4.63;;
56943;SDS011;42848;42.524;12.052;2024-02-26T08:18:28;7.68;;;4.40;;
56943;SDS011;42848;42.524;12.052;2024-02-26T08:20:54;7.13;;;4.57;;
56943;SDS011;42848;42.524;12.052;2024-02-26T08:23:20;7.50;;;3.80;;
56943;SDS011;42848;42.524;12.052;2024-02-26T08:25:45;6.40;;;3.05;;
56943;SDS011;42848;42.524;12.052;2024-02-26T08:28:11;5.88;;;3.50;;
56943;SDS011;42848;42.524;12.052;2024-02-26T08:30:38;5.35;;;3.20;;
56943;SDS011;42848;42.524;12.052;2024-02-26T08:33:04;6.15;;;3.90;;
56943;SDS011;42848;42.524;12.052;2024-02-26T08:35:29;4.35;;;2.50;;
56943;SDS011;42848;42.524;12.052;2024-02-26T08:37:55;4.18;;;2.85;;
56943;SDS011;42848;42.524;12.052;2024-02-26T08:40:21;6.50;;;3.10;;
56943;SDS011;42848;42.524;12.052;2024-02-26T08:42:47;7.32;;;3.80;;
56943;SDS011;42848;42.524;12.052;2024-02-26T08:45:13;4.55;;;2.85;;
56943;SDS011;42848;42.524;12.052;2024-02-26T08:47:39;4.80;;;2.95;;
56943;SDS011;42848;42.524;12.052;2024-02-26T08:50:04;4.93;;;3.00;;
56943;SDS011;42848;42.524;12.052;2024-02-26T08:52:31;4.68;;;2.90;;
56943;SDS011;42848;42.524;12.052;2024-02-26T08:54:57;7.88;;;3.28;;
56943;SDS011;42848;42.524;12.052;2024-02-26T08:57:23;5.43;;;3.45;;
56943;SDS011;42848;42.524;12.052;2024-02-26T08:59:48;6.93;;;3.80;;
56943;SDS011;42848;42.524;12.052;2024-02-26T09:02:14;4.97;;;2.88;;
56943;SDS011;42848;42.524;12.052;2024-02-26T09:04:40;5.85;;;3.30;;
56943;SDS011;42848;42.524;12.052;2024-02-26T09:07:05;9.63;;;6.25;;
56943;SDS011;42848;42.524;12.052;2024-02-26T09:09:31;9.38;;;5.47;;
56943;SDS011;42848;42.524;12.052;2024-02-26T09:11:57;6.32;;;3.80;;
56943;SDS011;42848;42.524;12.052;2024-02-26T09:14:22;5.63;;;3.40;;
56943;SDS011;42848;42.524;12.052;2024-02-26T09:16:48;6.50;;;4.00;;
56943;SDS011;42848;42.524;12.052;2024-02-26T09:19:14;9.80;;;5.85;;
56943;SDS011;42848;42.524;12.052;2024-02-26T09:21:43;6.13;;;4.07;;
56943;SDS011;42848;42.524;12.052;2024-02-26T09:24:10;5.25;;;3.88;;
56943;SDS011;42848;42.524;12.052;2024-02-26T09:26:37;6.35;;;4.07;;
56943;SDS011;42848;42.524;12.052;2024-02-26T09:29:03;6.20;;;3.80;;
56943;SDS011;42848;42.524;12.052;2024-02-26T09:31:29;5.10;;;3.25;;
56943;SDS011;42848;42.524;12.052;2024-02-26T09:33:55;6.82;;;4.45;;
56943;SDS011;42848;42.524;12.052;2024-02-26T09:36:21;7.03;;;5.85;;
56943;SDS011;42848;42.524;12.052;2024-02-26T09:38:47;4.68;;;3.40;;
56943;SDS011;42848;42.524;12.052;2024-02-26T09:41:16;6.57;;;4.20;;
56943;SDS011;42848;42.524;12.052;2024-02-26T09:43:43;5.00;;;3.40;;
56943;SDS011;42848;42.524;12.052;2024-02-26T09:46:13;6.20;;;3.83;;
56943;SDS011;42848;42.524;12.052;2024-02-26T09:48:42;5.65;;;3.90;;
56943;SDS011;42848;42.524;12.052;2024-02-26T09:51:10;8.27;;;5.15;;
56943;SDS011;42848;42.524;12.052;2024-02-26T09:53:37;7.18;;;3.42;;
56943;SDS011;42848;42.524;12.052;2024-02-26T09:56:07;4.68;;;2.80;;
56943;SDS011;42848;42.524;12.052;2024-02-26T09:58:33;4.90;;;3.40;;
56943;SDS011;42848;42.524;12.052;2024-02-26T10:01:00;11.05;;;6.97;;
56943;SDS011;42848;42.524;12.052;2024-02-26T10:03:34;11.27;;;6.35;;
56943;SDS011;42848;42.524;12.052;2024-02-26T10:06:06;13.68;;;6.88;;
56943;SDS011;42848;42.524;12.052;2024-02-26T10:08:33;10.75;;;6.25;;
56943;SDS011;42848;42.524;12.052;2024-02-26T10:11:00;12.90;;;6.70;;
56943;SDS011;42848;42.524;12.052;2024-02-26T10:13:26;8.90;;;5.10;;
56943;SDS011;42848;42.524;12.052;2024-02-26T10:15:52;10.18;;;5.97;;
56943;SDS011;42848;42.524;12.052;2024-02-26T10:18:18;7.25;;;4.80;;
56943;SDS011;42848;42.524;12.052;2024-02-26T10:21:00;7.68;;;5.30;;
56943;SDS011;42848;42.524;12.052;2024-02-26T10:23:27;7.85;;;5.78;;
56943;SDS011;42848;42.524;12.052;2024-02-26T10:25:53;6.50;;;4.70;;
56943;SDS011;42848;42.524;12.052;2024-02-26T10:28:20;6.78;;;4.57;;
56943;SDS011;42848;42.524;12.052;2024-02-26T10:30:46;8.43;;;4.78;;
56943;SDS011;42848;42.524;12.052;2024-02-26T10:33:11;6.75;;;4.40;;
56943;SDS011;42848;42.524;12.052;2024-02-26T10:35:39;7.15;;;5.03;;
56943;SDS011;42848;42.524;12.052;2024-02-26T10:38:08;6.90;;;4.55;;
56943;SDS011;42848;42.524;12.052;2024-02-26T10:40:34;6.80;;;4.25;;
56943;SDS011;42848;42.524;12.052;2024-02-26T10:43:00;8.40;;;5.22;;
56943;SDS011;42848;42.524;12.052;2024-02-26T10:45:27;8.43;;;5.43;;
56943;SDS011;42848;42.524;12.052;2024-02-26T10:47:53;9.50;;;5.53;;
56943;SDS011;42848;42.524;12.052;2024-02-26T10:50:19;9.70;;;5.53;;
56943;SDS011;42848;42.524;12.052;2024-02-26T10:52:45;10.35;;;7.20;;
56943;SDS011;42848;42.524;12.052;2024-02-26T10:55:15;8.57;;;5.30;;
56943;SDS011;42848;42.524;12.052;2024-02-26T10:57:45;10.52;;;6.63;;
56943;SDS011;42848;42.524;12.052;2024-02-26T11:00:13;14.07;;;9.02;;
56943;SDS011;42848;42.524;12.052;2024-02-26T11:02:41;9.07;;;7.13;;
56943;SDS011;42848;42.524;12.052;2024-02-26T11:05:07;12.05;;;8.10;;
56943;SDS011;42848;42.524;12.052;2024-02-26T11:07:36;10.07;;;6.97;;
56943;SDS011;42848;42.524;12.052;2024-02-26T11:10:03;10.75;;;6.22;;
56943;SDS011;42848;42.524;12.052;2024-02-26T11:12:34;9.75;;;6.43;;
56943;SDS011;42848;42.524;12.052;2024-02-26T11:15:03;9.35;;;6.95;;
56943;SDS011;42848;42.524;12.052;2024-02-26T11:17:30;9.57;;;6.47;;
56943;SDS011;42848;42.524;12.052;2024-02-26T11:19:59;11.32;;;8.40;;
56943;SDS011;42848;42.524;12.052;2024-02-26T11:22:27;11.80;;;8.32;;
56943;SDS011;42848;42.524;12.052;2024-02-26T11:24:57;11.73;;;8.95;;
56943;SDS011;42848;42.524;12.052;2024-02-26T11:27:38;11.75;;;8.50;;
56943;SDS011;42848;42.524;12.052;2024-02-26T11:30:11;12.32;;;8.23;;
56943;SDS011;42848;42.524;12.052;2024-02-26T11:32:38;11.63;;;7.45;;
56943;SDS011;42848;42.524;12.052;2024-02-26T11:35:07;10.50;;;8.38;;
56943;SDS011;42848;42.524;12.052;2024-02-26T11:37:35;13.98;;;12.20;;
56943;SDS011;42848;42.524;12.052;2024-02-26T11:40:01;13.90;;;8.63;;
56943;SDS011;42848;42.524;12.052;2024-02-26T11:42:27;12.68;;;9.10;;
56943;SDS011;42848;42.524;12.052;2024-02-26T11:44:55;10.77;;;7.63;;
56943;SDS011;42848;42.524;12.052;2024-02-26T11:47:26;10.23;;;7.15;;
56943;SDS011;42848;42.524;12.052;2024-02-26T11:49:52;10.77;;;8.93;;
56943;SDS011;42848;42.524;12.052;2024-02-26T11:52:18;9.98;;;7.10;;
56943;SDS011;42848;42.524;12.052;2024-02-26T11:57:22;8.75;;;6.50;;
56943;SDS011;42848;42.524;12.052;2024-02-26T11:59:50;10.25;;;6.85;;
56943;SDS011;42848;42.524;12.052;2024-02-26T12:05:20;13.63;;;9.38;;
56943;SDS011;42848;42.524;12.052;2024-02-26T12:08:01;11.23;;;6.68;;
56943;SDS011;42848;42.524;12.052;2024-02-26T12:13:13;9.75;;;5.93;;
56943;SDS011;42848;42.524;12.052;2024-02-26T12:18:09;12.35;;;8.07;;
56943;SDS011;42848;42.524;12.052;2024-02-26T12:20:38;11.85;;;8.20;;
56943;SDS011;42848;42.524;12.052;2024-02-26T12:23:04;12.13;;;9.02;;
56943;SDS011;42848;42.524;12.052;2024-02-26T12:25:31;10.60;;;7.15;;
56943;SDS011;42848;42.524;12.052;2024-02-26T12:27:58;10.88;;;6.85;;
56943;SDS011;42848;42.524;12.052;2024-02-26T12:30:24;10.80;;;7.20;;
56943;SDS011;42848;42.524;12.052;2024-02-26T12:32:51;14.90;;;9.32;;
56943;SDS011;42848;42.524;12.052;2024-02-26T12:35:22;12.65;;;8.27;;
56943;SDS011;42848;42.524;12.052;2024-02-26T12:37:48;16.02;;;10.27;;
56943;SDS011;42848;42.524;12.052;2024-02-26T12:40:16;8.90;;;6.55;;
56943;SDS011;42848;42.524;12.052;2024-02-26T12:42:42;10.15;;;7.30;;
56943;SDS011;42848;42.524;12.052;2024-02-26T12:45:12;8.80;;;5.90;;
56943;SDS011;42848;42.524;12.052;2024-02-26T12:47:42;8.40;;;5.10;;
56943;SDS011;42848;42.524;12.052;2024-02-26T12:50:11;7.13;;;4.78;;
56943;SDS011;42848;42.524;12.052;2024-02-26T12:52:38;8.25;;;6.00;;
56943;SDS011;42848;42.524;12.052;2024-02-26T12:55:05;8.80;;;6.57;;
56943;SDS011;42848;42.524;12.052;2024-02-26T12:57:35;9.82;;;6.32;;
56943;SDS011;42848;42.524;12.052;2024-02-26T13:00:06;9.75;;;6.00;;
56943;SDS011;42848;42.524;12.052;2024-02-26T13:02:35;10.25;;;6.93;;
56943;SDS011;42848;42.524;12.052;2024-02-26T13:05:05;8.63;;;5.00;;
56943;SDS011;42848;42.524;12.052;2024-02-26T13:07:33;7.68;;;5.65;;
56943;SDS011;42848;42.524;12.052;2024-02-26T13:10:00;8.80;;;5.75;;
56943;SDS011;42848;42.524;12.052;2024-02-26T13:12:26;8.75;;;6.80;;
56943;SDS011;42848;42.524;12.052;2024-02-26T13:15:02;11.68;;;7.97;;
56943;SDS011;42848;42.524;12.052;2024-02-26T13:17:31;9.57;;;6.07;;
56943;SDS011;42848;42.524;12.052;2024-02-26T13:19:57;7.70;;;5.22;;
56943;SDS011;42848;42.524;12.052;2024-02-26T13:22:22;8.10;;;5.57;;
56943;SDS011;42848;42.524;12.052;2024-02-26T13:24:56;5.20;;;3.42;;
56943;SDS011;42848;42.524;12.052;2024-02-26T13:27:25;4.32;;;2.90;;
56943;SDS011;42848;42.524;12.052;2024-02-26T13:32:37;7.35;;;3.75;;
56943;SDS011;42848;42.524;12.052;2024-02-26T13:35:05;9.20;;;6.30;;
56943;SDS011;42848;42.524;12.052;2024-02-26T13:37:35;8.32;;;5.68;;
56943;SDS011;42848;42.524;12.052;2024-02-26T13:40:09;7.07;;;5.10;;
56943;SDS011;42848;42.524;12.052;2024-02-26T13:42:36;20.73;;;13.23;;
56943;SDS011;42848;42.524;12.052;2024-02-26T13:45:02;17.48;;;12.27;;
56943;SDS011;42848;42.524;12.052;2024-02-26T13:47:32;9.32;;;6.90;;
56943;SDS011;42848;42.524;12.052;2024-02-26T13:49:58;10.00;;;6.50;;
56943;SDS011;42848;42.524;12.052;2024-02-26T13:52:24;6.47;;;4.72;;
56943;SDS011;42848;42.524;12.052;2024-02-26T13:54:50;7.97;;;5.78;;
56943;SDS011;42848;42.524;12.052;2024-02-26T13:57:16;7.30;;;5.78;;
56943;SDS011;42848;42.524;12.052;2024-02-26T13:59:43;7.18;;;5.30;;
56943;SDS011;42848;42.524;12.052;2024-02-26T14:02:09;8.48;;;6.20;;
56943;SDS011;42848;42.524;12.052;2024-02-26T14:04:36;8.52;;;6.57;;
56943;SDS011;42848;42.524;12.052;2024-02-26T14:07:02;8.77;;;5.75;;
56943;SDS011;42848;42.524;12.052;2024-02-26T14:09:29;5.65;;;4.28;;
56943;SDS011;42848;42.524;12.052;2024-02-26T14:11:56;8.20;;;5.60;;
56943;SDS011;42848;42.524;12.052;2024-02-26T14:14:21;4.88;;;2.85;;
56943;SDS011;42848;42.524;12.052;2024-02-26T14:16:47;4.07;;;2.88;;
56943;SDS011;42848;42.524;12.052;2024-02-26T14:19:12;9.30;;;5.70;;
56943;SDS011;42848;42.524;12.052;2024-02-26T14:21:38;14.55;;;9.27;;
56943;SDS011;42848;42.524;12.052;2024-02-26T14:24:04;20.63;;;14.13;;
56943;SDS011;42848;42.524;12.052;2024-02-26T14:26:30;8.10;;;5.75;;
56943;SDS011;42848;42.524;12.052;2024-02-26T14:28:56;8.52;;;5.30;;
56943;SDS011;42848;42.524;12.052;2024-02-26T14:31:21;8.18;;;5.30;;
56943;SDS011;42848;42.524;12.052;2024-02-26T14:33:47;8.80;;;6.00;;
56943;SDS011;42848;42.524;12.052;2024-02-26T14:36:13;6.25;;;3.80;;
56943;SDS011;42848;42.524;12.052;2024-02-26T14:38:42;6.05;;;3.65;;
56943;SDS011;42848;42.524;12.052;2024-02-26T14:41:08;21.00;;;10.27;;